createdAt,value
2019-04-25T00:00:43.278Z,25.55
2019-04-25T00:03:13.484Z,27.70
2019-04-25T00:05:43.611Z,27.65
2019-04-25T00:08:14.516Z,26.05
2019-04-25T00:10:44.429Z,29.95
2019-04-25T00:13:15.022Z,33.42
2019-04-25T00:18:15.660Z,32.00
2019-04-25T00:20:52.942Z,30.43
2019-04-25T00:23:22.794Z,31.68
2019-04-25T00:26:12.157Z,31.20
2019-04-25T00:28:43.586Z,30.77
2019-04-25T00:31:13.722Z,29.40
2019-04-25T00:33:44.903Z,28.77
2019-04-25T00:36:15.031Z,28.65
2019-04-25T00:38:47.601Z,27.30
2019-04-25T00:41:16.419Z,28.17
2019-04-25T00:43:46.366Z,29.00
2019-04-25T00:46:16.254Z,27.95
2019-04-25T00:48:46.187Z,29.85
2019-04-25T00:51:16.062Z,29.48
2019-04-25T00:53:46.126Z,28.77
2019-04-25T00:56:16.044Z,28.70
2019-04-25T00:58:54.111Z,29.02
2019-04-25T01:01:26.574Z,28.17
2019-04-25T01:03:56.618Z,28.70
2019-04-25T01:06:26.375Z,28.25
2019-04-25T01:08:56.282Z,29.70
2019-04-25T01:11:26.160Z,30.57
2019-04-25T01:13:56.125Z,29.07
2019-04-25T01:16:25.901Z,28.57
2019-04-25T01:18:55.841Z,29.98
2019-04-25T01:21:25.676Z,30.82
2019-04-25T01:23:55.818Z,30.10
2019-04-25T01:26:25.769Z,30.55
2019-04-25T01:28:56.047Z,28.98
2019-04-25T01:31:27.637Z,31.27
2019-04-25T01:33:57.454Z,31.93
2019-04-25T01:36:44.907Z,33.65
2019-04-25T01:39:28.344Z,28.80
2019-04-25T01:41:59.777Z,29.85
2019-04-25T01:44:31.257Z,29.40
2019-04-25T01:47:01.211Z,29.87
2019-04-25T01:49:31.213Z,29.12
2019-04-25T01:52:01.112Z,28.60
2019-04-25T01:54:31.073Z,28.92
2019-04-25T01:57:00.898Z,27.30
2019-04-25T01:59:30.748Z,26.10
2019-04-25T02:02:00.674Z,27.55
2019-04-25T02:04:30.493Z,28.17
2019-04-25T02:07:00.374Z,27.35
2019-04-25T02:09:30.388Z,26.82
2019-04-25T02:12:01.832Z,26.45
2019-04-25T02:14:31.562Z,28.77
2019-04-25T02:17:02.340Z,28.70
2019-04-25T02:19:33.916Z,28.57
2019-04-25T02:22:04.562Z,29.35
2019-04-25T02:24:34.424Z,28.27
2019-04-25T02:27:04.720Z,29.27
2019-04-25T02:29:35.684Z,27.35
2019-04-25T02:32:08.954Z,29.02
2019-04-25T02:34:37.661Z,27.80
2019-04-25T02:37:09.410Z,31.02
2019-04-25T02:39:39.518Z,29.70
2019-04-25T02:42:09.397Z,28.65
2019-04-25T02:44:40.907Z,29.35
2019-04-25T02:47:15.131Z,29.12
2019-04-25T02:49:57.305Z,28.02
2019-04-25T02:52:28.804Z,28.90
2019-04-25T02:55:00.277Z,29.30
2019-04-25T02:57:30.138Z,28.90
2019-04-25T03:00:00.279Z,28.93
2019-04-25T03:02:30.156Z,29.27
2019-04-25T03:05:01.212Z,30.17
2019-04-25T03:07:31.339Z,28.67
2019-04-25T03:10:01.983Z,30.00
2019-04-25T03:12:34.398Z,29.35
2019-04-25T03:15:08.334Z,28.95
2019-04-25T03:17:37.800Z,32.17
2019-04-25T03:20:27.208Z,30.00
2019-04-25T03:22:59.493Z,29.55
2019-04-25T03:25:29.864Z,30.12
2019-04-25T03:28:01.198Z,29.95
2019-04-25T03:30:31.140Z,31.37
2019-04-25T03:33:02.618Z,33.65
2019-04-25T03:35:33.243Z,31.68
2019-04-25T03:40:33.978Z,31.85
2019-04-25T03:43:05.068Z,32.40
2019-04-25T03:45:35.453Z,33.80
2019-04-25T03:48:06.271Z,33.78
2019-04-25T03:50:36.185Z,35.28
2019-04-25T03:53:07.927Z,34.98
2019-04-25T03:55:37.870Z,33.60
2019-04-25T03:58:10.534Z,33.65
2019-04-25T04:00:39.219Z,31.85
2019-04-25T04:03:09.152Z,35.83
2019-04-25T04:05:39.017Z,33.18
2019-04-25T04:08:09.694Z,33.50
2019-04-25T04:10:39.722Z,33.65
2019-04-25T04:13:10.253Z,33.58
2019-04-25T04:15:40.262Z,33.88
2019-04-25T04:18:11.656Z,34.85
2019-04-25T04:20:49.183Z,35.40
2019-04-25T04:23:36.890Z,36.00
2019-04-25T04:26:07.391Z,35.50
2019-04-25T04:28:37.309Z,37.10
2019-04-25T04:31:08.278Z,36.60
2019-04-25T04:33:38.305Z,38.50
2019-04-25T04:36:08.793Z,38.55
2019-04-25T04:38:38.651Z,35.73
2019-04-25T04:41:09.636Z,35.48
2019-04-25T04:43:39.602Z,35.03
2019-04-25T04:46:10.203Z,35.05
2019-04-25T04:51:09.139Z,33.58
2019-04-25T04:53:39.031Z,32.05
2019-04-25T04:56:09.648Z,29.92
2019-04-25T05:01:08.605Z,27.67
2019-04-25T05:03:53.947Z,29.12
2019-04-25T05:06:25.473Z,27.77
2019-04-25T05:08:56.915Z,27.82
2019-04-25T05:11:26.784Z,27.80
2019-04-25T05:13:57.633Z,26.85
2019-04-25T05:16:27.516Z,26.77
2019-04-25T05:18:57.360Z,24.25
2019-04-25T05:21:27.224Z,24.27
2019-04-25T05:23:57.182Z,23.30
2019-04-25T05:26:27.132Z,24.25
2019-04-25T05:28:56.985Z,23.10
2019-04-25T05:31:34.286Z,23.77
2019-04-25T05:34:04.216Z,24.80
2019-04-25T05:36:40.119Z,24.15
2019-04-25T05:39:10.301Z,24.12
2019-04-25T05:41:43.875Z,24.82
2019-04-25T05:44:15.690Z,23.47
2019-04-25T05:46:45.437Z,23.60
2019-04-25T05:49:15.658Z,25.37
2019-04-25T05:51:45.452Z,24.95
2019-04-25T05:54:16.523Z,24.95
2019-04-25T05:56:46.507Z,24.98
2019-04-25T05:59:17.942Z,24.32
2019-04-25T06:01:47.868Z,25.65
2019-04-25T06:04:17.965Z,27.20
2019-04-25T06:06:48.101Z,27.40
2019-04-25T06:09:19.519Z,26.17
2019-04-25T06:12:00.107Z,26.20
2019-04-25T06:17:06.667Z,27.20
2019-04-25T06:19:43.993Z,25.08
2019-04-25T06:22:23.363Z,27.55
2019-04-25T06:24:57.946Z,28.73
2019-04-25T06:27:33.654Z,27.17
2019-04-25T06:30:07.128Z,27.37
2019-04-25T06:32:37.054Z,26.33
2019-04-25T06:35:07.690Z,25.75
2019-04-25T06:37:37.657Z,27.13
2019-04-25T06:40:08.491Z,27.48
2019-04-25T06:42:39.325Z,28.02
2019-04-25T06:45:18.569Z,25.77
2019-04-25T06:47:49.998Z,27.22
2019-04-25T06:50:20.521Z,27.02
2019-04-25T06:52:51.411Z,27.62
2019-04-25T06:55:22.867Z,27.62
2019-04-25T06:57:53.988Z,26.45
2019-04-25T07:00:27.746Z,27.25
2019-04-25T07:02:56.267Z,27.40
2019-04-25T07:05:33.450Z,27.65
2019-04-25T07:07:57.827Z,27.15
2019-04-25T07:10:27.811Z,28.25
2019-04-25T07:12:57.651Z,27.00
2019-04-25T07:15:27.916Z,26.90
2019-04-25T07:20:27.070Z,27.13
2019-04-25T07:22:57.503Z,27.75
2019-04-25T07:25:28.981Z,28.45
2019-04-25T07:28:03.435Z,26.55
2019-04-25T07:30:51.448Z,27.65
2019-04-25T07:33:14.052Z,26.25
2019-04-25T07:35:43.868Z,27.22
2019-04-25T07:38:14.106Z,26.50
2019-04-25T07:40:44.126Z,26.85
2019-04-25T07:45:43.596Z,28.07
2019-04-25T07:48:13.948Z,28.05
2019-04-25T07:50:43.978Z,27.65
2019-04-25T07:53:14.837Z,28.77
2019-04-25T07:58:14.388Z,27.97
2019-04-25T08:00:45.339Z,27.25
2019-04-25T08:03:15.522Z,27.50
2019-04-25T08:05:45.330Z,26.05
2019-04-25T08:08:15.214Z,27.67
2019-04-25T08:11:04.470Z,26.90
2019-04-25T08:13:36.271Z,26.87
2019-04-25T08:16:07.745Z,27.20
2019-04-25T08:18:39.027Z,24.90
2019-04-25T08:21:08.865Z,25.82
2019-04-25T08:23:39.056Z,25.25
2019-04-25T08:26:09.835Z,27.67
2019-04-25T08:28:54.031Z,24.90
2019-04-25T08:31:11.593Z,24.92
2019-04-25T08:33:43.521Z,24.70
2019-04-25T08:36:13.719Z,24.90
2019-04-25T08:38:44.784Z,24.57
2019-04-25T08:41:14.671Z,25.12
2019-04-25T08:43:45.448Z,23.40
2019-04-25T08:46:15.465Z,24.40
2019-04-25T08:49:06.211Z,23.67
2019-04-25T08:51:44.704Z,22.98
2019-04-25T08:54:25.114Z,23.05
2019-04-25T08:56:56.614Z,23.42
2019-04-25T08:59:50.464Z,23.75
2019-04-25T09:02:23.552Z,23.38
2019-04-25T09:04:56.096Z,24.47
2019-04-25T09:07:26.013Z,25.30
2019-04-25T09:09:55.930Z,21.40
2019-04-25T09:12:25.818Z,20.57
2019-04-25T09:14:55.734Z,20.88
2019-04-25T09:17:25.646Z,20.45
2019-04-25T09:19:55.922Z,21.52
2019-04-25T09:22:28.950Z,22.13
2019-04-25T09:24:58.829Z,22.48
2019-04-25T09:27:28.727Z,20.92
2019-04-25T09:29:58.592Z,19.48
2019-04-25T09:32:28.422Z,20.65
2019-04-25T09:34:58.350Z,19.25
2019-04-25T09:37:28.179Z,18.87
2019-04-25T09:39:59.551Z,20.10
2019-04-25T09:42:30.422Z,21.20
2019-04-25T09:45:07.974Z,19.12
2019-04-25T09:47:39.486Z,18.27
2019-04-25T09:50:11.191Z,18.80
2019-04-25T09:52:41.142Z,19.10
2019-04-25T09:55:21.454Z,17.87
2019-04-25T09:57:55.592Z,17.25
2019-04-25T10:00:33.279Z,16.52
2019-04-25T10:03:04.522Z,16.73
2019-04-25T10:05:34.475Z,15.88
2019-04-25T10:08:04.607Z,15.43
2019-04-25T10:10:34.563Z,16.97
2019-04-25T10:13:06.585Z,15.70
2019-04-25T10:15:45.670Z,15.58
2019-04-25T10:18:16.996Z,15.35
2019-04-25T10:20:47.557Z,16.17
2019-04-25T10:23:17.721Z,16.02
2019-04-25T10:25:49.244Z,14.75
2019-04-25T10:28:19.108Z,13.95
2019-04-25T10:30:49.245Z,14.70
2019-04-25T10:33:24.189Z,12.05
2019-04-25T10:35:59.380Z,13.85
2019-04-25T10:38:27.912Z,13.32
2019-04-25T10:40:58.613Z,13.70
2019-04-25T10:43:28.540Z,14.83
2019-04-25T10:45:58.525Z,14.45
2019-04-25T10:48:28.290Z,15.95
2019-04-25T10:50:58.106Z,16.20
2019-04-25T10:53:28.013Z,14.50
2019-04-25T10:55:57.941Z,15.93
2019-04-25T10:58:27.803Z,16.17
2019-04-25T11:00:58.597Z,15.70
2019-04-25T11:03:31.176Z,17.52
2019-04-25T11:06:01.011Z,16.05
2019-04-25T11:08:31.068Z,15.95
2019-04-25T11:11:04.054Z,16.30
2019-04-25T11:13:35.477Z,16.32
2019-04-25T11:16:06.393Z,15.58
2019-04-25T11:18:36.283Z,16.05
2019-04-25T11:21:07.189Z,15.75
2019-04-25T11:23:37.007Z,15.00
2019-04-25T11:26:07.033Z,15.80
2019-04-25T11:28:38.003Z,15.30
2019-04-25T11:31:09.494Z,15.55
2019-04-25T11:33:59.037Z,15.23
2019-04-25T11:36:28.908Z,15.72
2019-04-25T11:39:16.611Z,16.32
2019-04-25T11:41:48.210Z,15.35
2019-04-25T11:44:18.120Z,16.17
2019-04-25T11:46:49.524Z,15.65
2019-04-25T11:49:20.997Z,14.75
2019-04-25T11:51:59.975Z,15.50
2019-04-25T11:54:35.908Z,15.45
2019-04-25T11:57:11.434Z,15.65
2019-04-25T11:59:41.994Z,15.23
2019-04-25T12:02:20.940Z,16.30
2019-04-25T12:04:49.049Z,15.58
2019-04-25T12:07:19.220Z,15.23
2019-04-25T12:09:49.935Z,15.18
2019-04-25T12:12:19.772Z,15.88
2019-04-25T12:14:49.581Z,15.70
2019-04-25T12:17:19.420Z,15.43
2019-04-25T12:19:49.260Z,14.98
2019-04-25T12:22:19.160Z,15.80
2019-04-25T12:24:49.060Z,15.53
2019-04-25T12:27:22.868Z,14.80
2019-04-25T12:29:52.787Z,16.27
2019-04-25T12:32:22.938Z,15.03
2019-04-25T12:34:53.639Z,17.05
2019-04-25T12:37:25.059Z,15.90
2019-04-25T12:39:55.914Z,15.28
2019-04-25T12:42:25.853Z,14.90
2019-04-25T12:44:58.125Z,15.28
2019-04-25T12:47:32.218Z,14.75
2019-04-25T12:50:02.114Z,15.88
2019-04-25T12:52:33.340Z,16.05
2019-04-25T12:55:04.459Z,16.10
2019-04-25T12:57:34.375Z,15.83
2019-04-25T13:00:05.950Z,16.23
2019-04-25T13:02:36.627Z,17.67
2019-04-25T13:05:07.557Z,16.85
2019-04-25T13:07:39.045Z,18.37
2019-04-25T13:10:09.358Z,18.50
2019-04-25T13:12:39.192Z,17.95
2019-04-25T13:15:09.832Z,18.90
2019-04-25T13:17:40.113Z,18.75
2019-04-25T13:20:10.088Z,17.57
2019-04-25T13:22:39.893Z,18.55
2019-04-25T13:25:11.028Z,19.55
2019-04-25T13:27:46.696Z,17.20
2019-04-25T13:30:33.994Z,18.57
2019-04-25T13:33:11.228Z,18.32
2019-04-25T13:35:43.381Z,17.48
2019-04-25T13:38:13.271Z,18.17
2019-04-25T13:40:43.031Z,17.45
2019-04-25T13:43:12.933Z,17.62
2019-04-25T13:45:43.775Z,19.60
2019-04-25T13:48:13.708Z,19.27
2019-04-25T13:50:44.357Z,18.05
2019-04-25T13:53:14.480Z,18.95
2019-04-25T13:55:44.334Z,17.60
2019-04-25T13:58:17.393Z,20.00
2019-04-25T14:00:47.225Z,19.23
2019-04-25T14:03:18.630Z,18.27
2019-04-25T14:05:50.161Z,19.92
2019-04-25T14:08:21.016Z,17.32
2019-04-25T14:10:50.875Z,18.32
2019-04-25T14:13:21.169Z,18.42
2019-04-25T14:15:59.380Z,18.20
2019-04-25T14:18:32.818Z,20.20
2019-04-25T14:21:10.093Z,22.98
2019-04-25T14:23:39.917Z,23.27
2019-04-25T14:26:13.254Z,19.77
2019-04-25T14:28:44.553Z,21.00
2019-04-25T14:31:33.509Z,19.55
2019-04-25T14:33:54.274Z,19.42
2019-04-25T14:36:27.637Z,19.77
2019-04-25T14:38:58.237Z,21.65
2019-04-25T14:41:32.586Z,20.05
2019-04-25T14:44:05.587Z,21.05
2019-04-25T14:46:37.725Z,23.27
2019-04-25T14:49:07.121Z,20.25
2019-04-25T14:51:38.512Z,20.35
2019-04-25T14:54:09.958Z,20.68
2019-04-25T14:56:42.871Z,19.73
2019-04-25T14:59:14.051Z,21.02
2019-04-25T15:01:46.719Z,19.98
2019-04-25T15:04:16.584Z,23.07
2019-04-25T15:06:48.347Z,23.35
2019-04-25T15:09:18.397Z,23.98
2019-04-25T15:11:51.063Z,22.62
2019-04-25T15:14:21.026Z,25.32
2019-04-25T15:16:53.931Z,27.95
2019-04-25T15:19:29.578Z,23.98
2019-04-25T15:21:59.380Z,25.55
2019-04-25T15:24:30.312Z,27.75
2019-04-25T15:27:00.068Z,29.32
2019-04-25T15:29:29.899Z,28.62
2019-04-25T15:31:59.781Z,26.05
2019-04-25T15:34:31.218Z,29.18
2019-04-25T15:37:08.634Z,27.35
2019-04-25T15:39:52.014Z,28.60
2019-04-25T15:42:39.725Z,28.92
2019-04-25T15:45:11.259Z,28.73
2019-04-25T15:47:41.265Z,28.95
2019-04-25T15:50:11.630Z,28.98
2019-04-25T15:55:10.926Z,29.42
2019-04-25T15:57:41.515Z,35.20
2019-04-25T16:00:13.744Z,31.33
2019-04-25T16:02:43.800Z,36.73
2019-04-25T16:05:13.813Z,32.35
2019-04-25T16:07:43.998Z,42.17
2019-04-25T16:10:14.460Z,41.73
2019-04-25T16:12:44.824Z,32.15
2019-04-25T16:15:14.736Z,33.33
2019-04-25T16:17:44.598Z,33.63
2019-04-25T16:20:15.420Z,34.03
2019-04-25T16:22:45.393Z,32.93
2019-04-25T16:25:15.613Z,33.65
2019-04-25T16:27:45.442Z,35.75
2019-04-25T16:30:15.519Z,35.15
2019-04-25T16:32:45.431Z,34.43
2019-04-25T16:35:15.307Z,33.92
2019-04-25T16:37:46.204Z,31.95
2019-04-25T16:40:16.237Z,30.92
2019-04-25T16:42:46.168Z,32.93
2019-04-25T16:45:16.244Z,32.05
2019-04-25T16:47:46.134Z,30.95
2019-04-25T16:50:17.201Z,31.15
2019-04-25T16:52:47.094Z,33.33
2019-04-25T16:55:17.419Z,33.95
2019-04-25T16:57:47.387Z,33.73
2019-04-25T17:00:36.220Z,33.70
2019-04-25T17:03:06.356Z,33.78
2019-04-25T17:05:39.350Z,35.20
2019-04-25T17:08:09.486Z,34.40
2019-04-25T17:10:39.563Z,35.30
2019-04-25T17:13:09.586Z,35.65
2019-04-25T17:15:49.857Z,36.77
2019-04-25T17:18:27.060Z,37.17
2019-04-25T17:21:11.819Z,36.98
2019-04-25T17:23:44.235Z,37.98
2019-04-25T17:26:14.597Z,42.40
2019-04-25T17:28:46.071Z,42.05
2019-04-25T17:31:26.486Z,45.95
2019-04-25T17:34:06.700Z,42.23
2019-04-25T17:36:44.059Z,38.85
2019-04-25T17:39:27.656Z,34.20
2019-04-25T17:41:57.587Z,31.12
2019-04-25T17:44:27.342Z,30.25
2019-04-25T17:47:06.120Z,29.48
2019-04-25T17:49:28.920Z,31.65
2019-04-25T17:51:58.735Z,31.82
2019-04-25T17:54:28.689Z,34.10
2019-04-25T17:56:58.755Z,41.55
2019-04-25T17:59:28.720Z,32.45
2019-04-25T18:01:58.637Z,30.82
2019-04-25T18:04:29.951Z,28.73
2019-04-25T18:06:59.802Z,27.48
2019-04-25T18:09:29.715Z,26.25
2019-04-25T18:11:59.597Z,26.90
2019-04-25T18:14:29.441Z,27.45
2019-04-25T18:16:59.415Z,26.23
2019-04-25T18:19:34.077Z,27.85
2019-04-25T18:22:11.390Z,26.57
2019-04-25T18:25:00.853Z,25.68
2019-04-25T18:27:33.320Z,25.02
2019-04-25T18:30:06.040Z,25.43
2019-04-25T18:32:37.063Z,26.45
2019-04-25T18:35:09.949Z,26.48
2019-04-25T18:37:53.302Z,26.55
2019-04-25T18:40:35.620Z,27.87
2019-04-25T18:43:04.137Z,27.85
2019-04-25T18:45:38.352Z,28.17
2019-04-25T18:48:08.225Z,28.55
2019-04-25T18:50:38.563Z,27.50
2019-04-25T18:53:10.011Z,29.10
2019-04-25T18:55:44.242Z,28.77
2019-04-25T18:58:31.727Z,28.20
2019-04-25T19:01:15.208Z,28.85
2019-04-25T19:03:52.537Z,29.18
2019-04-25T19:06:23.989Z,29.80
2019-04-25T19:08:53.899Z,28.95
2019-04-25T19:11:23.804Z,27.90
2019-04-25T19:13:53.757Z,27.48
2019-04-25T19:16:23.645Z,30.32
2019-04-25T19:18:53.514Z,29.55
2019-04-25T19:21:23.389Z,29.12
2019-04-25T19:23:54.171Z,27.50
2019-04-25T19:26:24.619Z,28.45
2019-04-25T19:28:54.501Z,28.87
2019-04-25T19:31:24.391Z,28.92
2019-04-25T19:33:54.282Z,28.10
2019-04-25T19:36:24.176Z,28.45
2019-04-25T19:38:54.524Z,28.67
2019-04-25T19:41:28.899Z,26.87
2019-04-25T19:44:12.523Z,26.42
2019-04-25T19:46:44.919Z,26.77
2019-04-25T19:49:14.873Z,26.10
2019-04-25T19:51:45.164Z,26.57
2019-04-25T19:54:15.035Z,26.52
2019-04-25T19:56:45.367Z,25.57
2019-04-25T19:59:15.283Z,24.80
2019-04-25T20:01:45.961Z,25.25
2019-04-25T20:04:20.440Z,25.23
2019-04-25T20:06:51.963Z,25.77
2019-04-25T20:09:39.701Z,25.97
2019-04-25T20:12:09.598Z,23.30
2019-04-25T20:14:39.334Z,23.65
2019-04-25T20:17:09.817Z,24.23
2019-04-25T20:19:39.681Z,24.55
2019-04-25T20:22:09.501Z,24.63
2019-04-25T20:24:39.396Z,24.27
2019-04-25T20:27:09.186Z,24.77
2019-04-25T20:29:39.145Z,23.87
2019-04-25T20:32:08.950Z,24.02
2019-04-25T20:34:38.893Z,23.35
2019-04-25T20:37:08.736Z,25.10
2019-04-25T20:39:38.505Z,23.52
2019-04-25T20:42:08.462Z,25.40
2019-04-25T20:44:38.318Z,24.35
2019-04-25T20:47:08.228Z,24.27
2019-04-25T20:49:38.114Z,24.67
2019-04-25T20:52:07.947Z,23.10
2019-04-25T20:54:37.803Z,24.15
2019-04-25T20:57:07.622Z,23.98
2019-04-25T20:59:37.457Z,22.50
2019-04-25T21:02:08.416Z,24.00
2019-04-25T21:04:42.939Z,23.87
2019-04-25T21:07:12.876Z,24.75
2019-04-25T21:09:42.708Z,24.47
2019-04-25T21:12:12.545Z,25.65
2019-04-25T21:14:43.990Z,26.57
2019-04-25T21:17:27.249Z,24.82
2019-04-25T21:19:58.815Z,24.57
2019-04-25T21:22:28.678Z,28.95
2019-04-25T21:24:58.547Z,26.57
2019-04-25T21:27:28.375Z,30.23
2019-04-25T21:29:58.298Z,26.37
2019-04-25T21:32:28.151Z,27.58
2019-04-25T21:34:59.020Z,27.58
2019-04-25T21:40:08.525Z,29.15
2019-04-25T21:42:40.372Z,30.23
2019-04-25T21:45:10.442Z,30.85
2019-04-25T21:47:40.275Z,31.55
2019-04-25T21:50:10.825Z,33.53
2019-04-25T21:55:10.092Z,34.67
2019-04-25T21:57:40.284Z,35.03
2019-04-25T22:00:13.465Z,37.78
2019-04-25T22:02:44.420Z,38.05
2019-04-25T22:05:14.524Z,39.58
2019-04-25T22:07:44.636Z,35.45
2019-04-25T22:10:14.876Z,36.75
2019-04-25T22:12:44.769Z,36.50
2019-04-25T22:15:16.293Z,35.03
2019-04-25T22:17:46.134Z,37.33
2019-04-25T22:20:16.122Z,37.83
2019-04-25T22:22:46.261Z,37.90
2019-04-25T22:25:16.000Z,35.87
2019-04-25T22:27:46.429Z,36.03
2019-04-25T22:30:18.030Z,36.17
2019-04-25T22:33:03.637Z,33.40
2019-04-25T22:35:53.342Z,33.30
2019-04-25T22:38:23.446Z,35.23
2019-04-25T22:40:54.625Z,33.28
2019-04-25T22:43:24.702Z,32.95
2019-04-25T22:45:54.956Z,31.80
2019-04-25T22:48:26.544Z,31.02
2019-04-25T22:50:57.530Z,27.73
2019-04-25T22:55:57.121Z,27.32
2019-04-25T22:58:27.013Z,27.60
2019-04-25T23:00:57.038Z,26.75
2019-04-25T23:03:28.527Z,26.07
2019-04-25T23:05:58.424Z,25.88
2019-04-25T23:08:28.632Z,23.10
2019-04-25T23:10:58.532Z,22.55
2019-04-25T23:13:28.463Z,22.93
2019-04-25T23:15:58.478Z,23.30
2019-04-25T23:18:28.620Z,22.77
2019-04-25T23:20:58.405Z,22.70
2019-04-25T23:23:28.482Z,21.27
2019-04-25T23:26:03.561Z,21.82
2019-04-25T23:28:40.304Z,21.50
2019-04-25T23:31:12.531Z,20.65
2019-04-25T23:33:42.489Z,20.20
2019-04-25T23:36:13.224Z,22.05
2019-04-25T23:38:43.068Z,21.80
2019-04-25T23:41:13.580Z,20.27
2019-04-25T23:43:43.477Z,20.77
2019-04-25T23:46:14.189Z,19.55
2019-04-25T23:48:44.341Z,20.68
2019-04-25T23:51:14.361Z,21.55
2019-04-25T23:53:45.062Z,19.65
2019-04-25T23:56:15.281Z,21.70
2019-04-25T23:58:45.289Z,20.52
